Kamikawa Maru — JG5687 — position and weather

sailwx.info

Track history (hours):
 
Tides and Currents Weather Stations Pressure Air Temp Water Temp Dewpoint Dewpoint Depression Visibility Wind Speed Wind Dir Waves Ship Positions

Kamikawa Maru

Last reported at 2017-Mar-28 13:08 UTC. Time now 2017-Mar-29 15:03 UTC.
Position N 35°03' E 139°42'.

Length 162 m; draft 6.8 m.

Type: Cargo ship. MMSI: 431101012.

Date/timePositionNaut miles runAvg speedWind from/ knotsBaromVisibWave heightAir tempDewpointWater temp
2017-Mar-28 13:08N 35°03' E 139°42'1017.7
2017-Mar-28 12:33N 35°13' E 139°46'1313.4
2017-Mar-28 11:33N 35°26' E 139°45'1211.8
2017-Mar-28 10:33N 35°38' E 139°46'0 0.0
2017-Mar-28 08:14N 35°38' E 139°46'0 0.0
2017-Mar-28 07:29N 35°38' E 139°46'0 0.1
2017-Mar-28 06:32N 35°38' E 139°46'0 0.0
2017-Mar-28 05:32N 35°38' E 139°46'0 0.0
2017-Mar-28 03:32N 35°38' E 139°46'0 0.0
2017-Mar-28 02:29N 35°38' E 139°46'0 0.0
2017-Mar-28 01:32N 35°38' E 139°46'0 0.0
2017-Mar-28 00:26N 35°38' E 139°46'1 0.8
2017-Mar-27 23:33N 35°37' E 139°46'1111.2
2017-Mar-27 22:34N 35°26' E 139°49'1111.2
2017-Mar-27 21:33N 35°15' E 139°47'1515.2
2017-Mar-27 20:33N 35°01' E 139°39'1817.9
2017-Mar-27 19:33N 34°50' E 139°22'  
2017-Mar-21 13:25N 34°52' E 139°52'1416.3
2017-Mar-21 12:33N 35°04' E 139°43'1414.7
2017-Mar-21 11:34N 35°18' E 139°44'1615.6
2017-Mar-21 10:33N 35°33' E 139°51'7 6.7
2017-Mar-21 09:33N 35°38' E 139°46'0 0.0
2017-Mar-21 08:33N 35°38' E 139°46'0 0.0
2017-Mar-21 07:18N 35°38' E 139°46'0 0.0
2017-Mar-21 06:06N 35°38' E 139°46'0 0.0
2017-Mar-21 05:24N 35°38' E 139°46'0 0.0
2017-Mar-21 03:27N 35°38' E 139°46'0 0.0
2017-Mar-21 02:12N 35°38' E 139°46'0 0.1
2017-Mar-21 01:30N 35°38' E 139°46'0 0.0
2017-Mar-21 00:30N 35°38' E 139°46'0 0.0
2017-Mar-20 23:33N 35°38' E 139°46'9 7.7
2017-Mar-20 22:24N 35°32' E 139°54'0 0.0
2017-Mar-20 21:30N 35°32' E 139°54'0 0.1
2017-Mar-20 20:33N 35°32' E 139°54'0 0.1
2017-Mar-20 19:33N 35°32' E 139°54'0 0.0
2017-Mar-20 18:33N 35°32' E 139°54'9 9.5
2017-Mar-20 17:33N 35°25' E 139°47'1211.9
2017-Mar-20 16:33N 35°13' E 139°47'1717.4
2017-Mar-20 15:34N 34°59' E 139°34'3 0.1
2017-Mar-19 09:32N 35°02' E 139°35'1616.3
2017-Mar-19 08:34N 35°15' E 139°46'1312.7
2017-Mar-19 07:33N 35°27' E 139°48'1110.1
2017-Mar-19 06:29N 35°38' E 139°46'0 0.1
2017-Mar-19 05:32N 35°38' E 139°46'0 0.0
2017-Mar-19 04:32N 35°38' E 139°46'0 0.0
2017-Mar-19 03:32N 35°38' E 139°46'0 0.0
2017-Mar-19 02:32N 35°38' E 139°46'0 0.0
2017-Mar-19 01:32N 35°38' E 139°46'0 0.0
2017-Mar-19 00:32N 35°38' E 139°46'0 0.0
2017-Mar-18 23:33N 35°38' E 139°46'9 8.3
2017-Mar-18 22:31N 35°32' E 139°54'0 0.0
2017-Mar-18 21:28N 35°32' E 139°54'1011.2
2017-Mar-18 20:33N 35°24' E 139°46'1212.2
2017-Mar-18 19:33N 35°12' E 139°47'1716.8
2017-Mar-18 18:33N 34°55' E 139°45'  
Track history (hours):
 
Tides and Currents Weather Stations Pressure Air Temp Water Temp Dewpoint Dewpoint Depression Visibility Wind Speed Wind Dir Waves Ship Positions

Kamikawa Maru

Last reported at 2017-Mar-28 13:08 UTC. Time now 2017-Mar-29 15:03 UTC.
Position N 35°03' E 139°42'.

Length 162 m; draft 6.8 m.

Type: Cargo ship. MMSI: 431101012.

Date/timePositionNaut miles runAvg speedWind from/ knotsBaromVisibWave heightAir tempDewpointWater temp
2017-Mar-28 13:08N 35°03' E 139°42'1017.7
2017-Mar-28 12:33N 35°13' E 139°46'1313.4
2017-Mar-28 11:33N 35°26' E 139°45'1211.8
2017-Mar-28 10:33N 35°38' E 139°46'0 0.0
2017-Mar-28 08:14N 35°38' E 139°46'0 0.0
2017-Mar-28 07:29N 35°38' E 139°46'0 0.1
2017-Mar-28 06:32N 35°38' E 139°46'0 0.0
2017-Mar-28 05:32N 35°38' E 139°46'0 0.0
2017-Mar-28 03:32N 35°38' E 139°46'0 0.0
2017-Mar-28 02:29N 35°38' E 139°46'0 0.0
2017-Mar-28 01:32N 35°38' E 139°46'0 0.0
2017-Mar-28 00:26N 35°38' E 139°46'1 0.8
2017-Mar-27 23:33N 35°37' E 139°46'1111.2
2017-Mar-27 22:34N 35°26' E 139°49'1111.2
2017-Mar-27 21:33N 35°15' E 139°47'1515.2
2017-Mar-27 20:33N 35°01' E 139°39'1817.9
2017-Mar-27 19:33N 34°50' E 139°22'  
2017-Mar-21 13:25N 34°52' E 139°52'1416.3
2017-Mar-21 12:33N 35°04' E 139°43'1414.7
2017-Mar-21 11:34N 35°18' E 139°44'1615.6
2017-Mar-21 10:33N 35°33' E 139°51'7 6.7
2017-Mar-21 09:33N 35°38' E 139°46'0 0.0
2017-Mar-21 08:33N 35°38' E 139°46'0 0.0
2017-Mar-21 07:18N 35°38' E 139°46'0 0.0
2017-Mar-21 06:06N 35°38' E 139°46'0 0.0
2017-Mar-21 05:24N 35°38' E 139°46'0 0.0
2017-Mar-21 03:27N 35°38' E 139°46'0 0.0
2017-Mar-21 02:12N 35°38' E 139°46'0 0.1
2017-Mar-21 01:30N 35°38' E 139°46'0 0.0
2017-Mar-21 00:30N 35°38' E 139°46'0 0.0
2017-Mar-20 23:33N 35°38' E 139°46'9 7.7
2017-Mar-20 22:24N 35°32' E 139°54'0 0.0
2017-Mar-20 21:30N 35°32' E 139°54'0 0.1
2017-Mar-20 20:33N 35°32' E 139°54'0 0.1
2017-Mar-20 19:33N 35°32' E 139°54'0 0.0
2017-Mar-20 18:33N 35°32' E 139°54'9 9.5
2017-Mar-20 17:33N 35°25' E 139°47'1211.9
2017-Mar-20 16:33N 35°13' E 139°47'1717.4
2017-Mar-20 15:34N 34°59' E 139°34'3 0.1
2017-Mar-19 09:32N 35°02' E 139°35'1616.3
2017-Mar-19 08:34N 35°15' E 139°46'1312.7
2017-Mar-19 07:33N 35°27' E 139°48'1110.1
2017-Mar-19 06:29N 35°38' E 139°46'0 0.1
2017-Mar-19 05:32N 35°38' E 139°46'0 0.0
2017-Mar-19 04:32N 35°38' E 139°46'0 0.0
2017-Mar-19 03:32N 35°38' E 139°46'0 0.0
2017-Mar-19 02:32N 35°38' E 139°46'0 0.0
2017-Mar-19 01:32N 35°38' E 139°46'0 0.0
2017-Mar-19 00:32N 35°38' E 139°46'0 0.0
2017-Mar-18 23:33N 35°38' E 139°46'9 8.3
2017-Mar-18 22:31N 35°32' E 139°54'0 0.0
2017-Mar-18 21:28N 35°32' E 139°54'1011.2
2017-Mar-18 20:33N 35°24' E 139°46'1212.2
2017-Mar-18 19:33N 35°12' E 139°47'1716.8
2017-Mar-18 18:33N 34°55' E 139°45'  

Dump ship's entire track history